aviador You're here:

WMKD Decoded Metar

KUANTAN in MALAYSIA
Report Time2018-05-26 15:00:00
UTC Time2018-05-26 15:46:27
Flight Rules vfr VFR
WindCalm
Visibility9999 m
Phenomena:N/A
Clouds:Few 024 Hf
Broken 280 Hf
Expected CloudBase > 400 ft AGL from Temp-Dew spread
Ceiling28,000 ft
Temp26°C (ISA +11)
Dew Point25°C (94% RH)
QNH1010 hPa
Density Alt1,850 ft
Elevation52 ft
Report Wrong Elevation
Raw Report
METAR WMKD 261500Z 00000KT 9999 FEW024 BKN280 26/25 Q1010 NOSIG=

Extra information for WMKD:More info

Metar Taf Metar & Taf Last 4 Metars F.Rules Stats Wind Profile Meteogram Temp Stats Airport Information Weather charts Add Link Nearby VenuesMetar ALERT Operation Metar Decoded Social comments